Time;durP1;ratioP1;P1;durP2;ratioP2;P2;SDS_P1;SDS_P2;PMS_P1;PMS_P2;Temp;Humidity;BMP_temperature;BMP_pressure;BME280_temperature;BME280_humidity;BME280_pressure;Samples;Min_cycle;Max_cycle;Signal;HPM_P1;HPM_P2
2023/03/22 00:01:40;;;;;;;;;;;;;;;7.80;100.00;100332.03;5576101;31;34828;-68
2023/03/22 00:04:51;;;;;;;;;;;;;;;7.75;100.00;100329.03;5576420;31;35029;-67
2023/03/22 00:07:59;;;;;;;;;;;;;;;7.71;100.00;100328.50;5589407;31;34451;-68
2023/03/22 00:11:07;;;;;;;;;;;;;;;7.70;100.00;100332.13;5575349;31;35496;-67
2023/03/22 00:14:12;;;;;;;;;;;;;;;7.67;100.00;100329.78;5561610;31;34548;-67
2023/03/22 00:17:17;;;;;;;;;;;;;;;7.67;100.00;100326.31;5575871;31;35169;-67
2023/03/22 00:20:25;;;;;;;;;;;;;;;7.66;100.00;100325.50;5575947;31;35133;-68
2023/03/22 00:23:30;;;;;;;;;;;;;;;7.58;100.00;100324.59;5575971;31;34555;-67
2023/03/22 00:26:38;;;;;;;;;;;;;;;7.54;100.00;100324.06;5563002;31;34600;-67
2023/03/22 00:29:45;;;;;;;;;;;;;;;7.48;100.00;100326.47;5576125;31;35070;-68
2023/03/22 00:32:52;;;;;;;;;;;;;;;7.45;100.00;100326.78;5562734;31;33300;-67
2023/03/22 00:36:00;;;;;;;;;;;;;;;7.36;100.00;100325.81;5575351;31;34541;-67
2023/03/22 00:39:08;;;;;;;;;;;;;;;7.32;100.00;100325.31;5589093;31;35103;-67
2023/03/22 00:42:16;;;;;;;;;;;;;;;7.35;100.00;100329.47;5575740;31;34545;-67
2023/03/22 00:45:24;;;;;;;;;;;;;;;7.27;100.00;100317.00;5574655;31;33141;-67
2023/03/22 00:48:35;;;;;;;;;;;;;;;7.29;100.00;100324.78;5589016;31;35215;-67
2023/03/22 00:51:42;;;;;;;;;;;;;;;7.27;100.00;100317.00;5582270;31;34483;-68
2023/03/22 00:54:50;;;;;;;;;;;;;;;7.23;100.00;100322.72;5575780;31;35148;-67
2023/03/22 00:58:01;;;;;;;;;;;;;;;7.25;100.00;100321.59;5575919;31;35179;-68
2023/03/22 01:01:12;;;;;;;;;;;;;;;7.19;100.00;100322.19;5575825;31;33552;-67
2023/03/22 01:04:25;;;;;;;;;;;;;;;7.13;100.00;100320.12;5575920;31;34597;-67
2023/03/22 01:07:37;;;;;;;;;;;;;;;7.01;100.00;100323.12;5575463;31;34453;-67
2023/03/22 01:10:48;;;;;;;;;;;;;;;6.99;100.00;100318.81;5562438;31;32986;-67
2023/03/22 01:13:56;;;;;;;;;;;;;;;6.92;100.00;100317.72;5575113;31;34118;-68
2023/03/22 01:17:03;;;;;;;;;;;;;;;6.87;100.00;100305.97;5574568;31;34377;-68
2023/03/22 01:20:10;;;;;;;;;;;;;;;6.81;100.00;100309.19;5574120;31;33869;-67
2023/03/22 01:23:18;;;;;;;;;;;;;;;6.80;100.00;100300.44;5588526;31;34514;-67
2023/03/22 01:26:25;;;;;;;;;;;;;;;6.70;100.00;100304.09;5590355;31;34436;-67
2023/03/22 01:29:34;;;;;;;;;;;;;;;6.64;100.00;100286.22;5577659;31;34446;-67
2023/03/22 01:32:42;;;;;;;;;;;;;;;6.58;100.00;100294.72;5577500;31;35150;-68
2023/03/22 01:35:49;;;;;;;;;;;;;;;6.54;100.00;100296.78;5590935;31;34207;-67
2023/03/22 01:38:58;;;;;;;;;;;;;;;6.48;100.00;100298.22;5590897;31;34521;-67
2023/03/22 01:42:12;;;;;;;;;;;;;;;6.41;100.00;100293.66;5577811;31;35265;-68
2023/03/22 01:45:32;;;;;;;;;;;;;;;6.32;100.00;100292.72;5576585;31;33793;-68
2023/03/22 01:48:44;;;;;;;;;;;;;;;6.26;100.00;100302.97;5564484;31;33464;-68
2023/03/22 01:51:55;;;;;;;;;;;;;;;6.27;100.00;100302.84;5584000;31;34850;-68
2023/03/22 01:55:08;;;;;;;;;;;;;;;6.25;100.00;100296.03;5590738;31;34918;-67
2023/03/22 01:58:17;;;;;;;;;;;;;;;6.25;100.00;100298.69;5590578;31;34531;-68
2023/03/22 02:01:26;;;;;;;;;;;;;;;6.19;100.00;100291.37;5590559;31;34553;-67
2023/03/22 02:04:39;;;;;;;;;;;;;;;6.15;100.00;100297.87;5577731;31;34625;-68
2023/03/22 02:07:46;;;;;;;;;;;;;;;6.09;100.00;100300.12;5576821;31;33598;-66
2023/03/22 02:10:55;;;;;;;;;;;;;;;6.05;100.00;100309.25;5577479;31;34390;-67
2023/03/22 02:14:41;;;;;;;;;;;;;;;6.01;100.00;100315.75;5577514;31;34513;-67
2023/03/22 02:17:58;;;;;;;;;;;;;;;5.98;100.00;100317.84;5486554;32;36607;-66
2023/03/22 02:21:08;;;;;;;;;;;;;;;5.92;100.00;100310.50;5590355;31;34663;-66
2023/03/22 02:24:16;;;;;;;;;;;;;;;5.91;100.00;100306.22;5590375;31;34810;-66
2023/03/22 02:27:27;;;;;;;;;;;;;;;5.81;100.00;100308.00;5590534;31;33510;-67
2023/03/22 02:30:38;;;;;;;;;;;;;;;5.82;100.00;100312.28;5590326;31;35087;-67
2023/03/22 02:33:44;;;;;;;;;;;;;;;5.84;100.00;100311.19;5590263;31;34473;-66
2023/03/22 02:37:07;;;;;;;;;;;;;;;5.83;100.00;100320.03;5589942;31;34919;-66
2023/03/22 02:40:24;;;;;;;;;;;;;;;5.78;100.00;100311.72;5590183;31;34587;-66
2023/03/22 02:43:40;;;;;;;;;;;;;;;5.80;100.00;100322.13;5577022;31;34587;-66
2023/03/22 02:46:53;;;;;;;;;;;;;;;5.83;100.00;100327.94;5576785;31;35221;-66
2023/03/22 02:50:07;;;;;;;;;;;;;;;5.77;100.00;100327.66;5590182;31;33332;-66
2023/03/22 02:53:18;;;;;;;;;;;;;;;5.88;100.00;100320.50;5590055;31;34443;-67
2023/03/22 02:56:24;;;;;;;;;;;;;;;5.89;100.00;100321.31;5590379;31;34572;-66
2023/03/22 02:59:36;;;;;;;;;;;;;;;5.89;100.00;100327.44;5576998;31;35028;-66
2023/03/22 03:02:51;;;;;;;;;;;;;;;5.93;100.00;100335.87;5575919;31;33406;-66
2023/03/22 03:06:02;;;;;;;;;;;;;;;6.06;100.00;100329.34;5576684;31;35229;-67
2023/03/22 03:09:12;;;;;;;;;;;;;;;6.13;100.00;100329.63;5590062;31;34962;-67
2023/03/22 03:12:21;;;;;;;;;;;;;;;6.19;100.00;100336.13;5564558;31;34670;-66
2023/03/22 03:15:31;;;;;;;;;;;;;;;6.20;100.00;100322.81;5589791;31;35079;-66
2023/03/22 03:18:50;;;;;;;;;;;;;;;6.20;100.00;100327.25;5589890;31;34198;-68
2023/03/22 03:21:59;;;;;;;;;;;;;;;6.26;100.00;100329.31;5575838;31;33852;-66
2023/03/22 03:25:12;;;;;;;;;;;;;;;6.32;100.00;100328.75;5576428;31;34537;-66
2023/03/22 03:28:39;;;;;;;;;;;;;;;6.39;100.00;100319.34;5589844;31;34680;-67
2023/03/22 03:31:50;;;;;;;;;;;;;;;6.29;100.00;100337.78;5589865;31;34529;-66
2023/03/22 03:35:20;;;;;;;;;;;;;;;6.28;100.00;100322.13;5576062;31;33025;-68
2023/03/22 03:38:29;;;;;;;;;;;;;;;6.58;100.00;100329.00;5589782;31;35095;-68
2023/03/22 03:41:41;;;;;;;;;;;;;;;6.66;100.00;100331.72;5564702;31;33015;-68
2023/03/22 03:44:49;;;;;;;;;;;;;;;6.44;100.00;100333.72;5589857;31;35053;-68
2023/03/22 03:47:59;;;;;;;;;;;;;;;6.43;100.00;100326.81;5588932;31;34460;-68
2023/03/22 03:51:06;;;;;;;;;;;;;;;6.34;100.00;100337.38;5582849;31;35091;-68
2023/03/22 03:54:15;;;;;;;;;;;;;;;6.30;100.00;100347.34;5583832;31;35286;-69
2023/03/22 03:57:23;;;;;;;;;;;;;;;6.12;100.00;100346.41;5589643;31;35219;-68
2023/03/22 04:00:34;;;;;;;;;;;;;;;6.10;100.00;100335.16;5589726;31;35160;-68
2023/03/22 04:03:54;;;;;;;;;;;;;;;6.30;100.00;100331.53;5589656;31;34469;-68
2023/03/22 04:09:20;;;;;;;;;;;;;;;5.97;100.00;100329.34;5576002;31;1509280;-67
2023/03/22 04:12:30;;;;;;;;;;;;;;;5.87;100.00;100328.53;5624259;31;33874;-66
2023/03/22 04:15:39;;;;;;;;;;;;;;;5.98;100.00;100323.97;5623530;31;34400;-67
2023/03/22 04:18:51;;;;;;;;;;;;;;;5.88;100.00;100328.41;5624192;31;34777;-67
2023/03/22 04:22:00;;;;;;;;;;;;;;;5.76;100.00;100326.81;5624142;31;34310;-68
2023/03/22 04:25:11;;;;;;;;;;;;;;;5.72;100.00;100332.50;5624144;31;34034;-67
2023/03/22 04:28:20;;;;;;;;;;;;;;;5.67;100.00;100332.91;5624053;31;34674;-67
2023/03/22 04:31:30;;;;;;;;;;;;;;;5.64;100.00;100331.41;5624069;31;34806;-67
2023/03/22 04:34:37;;;;;;;;;;;;;;;5.57;100.00;100348.69;5624121;31;33718;-67
2023/03/22 04:37:50;;;;;;;;;;;;;;;5.55;100.00;100340.12;5623374;31;33983;-67
2023/03/22 04:40:57;;;;;;;;;;;;;;;5.54;100.00;100335.81;5624083;31;34485;-66
2023/03/22 04:44:07;;;;;;;;;;;;;;;5.52;100.00;100352.69;5623884;31;34696;-67
2023/03/22 04:47:15;;;;;;;;;;;;;;;5.68;100.00;100338.06;5623768;31;33989;-66
2023/03/22 04:50:22;;;;;;;;;;;;;;;5.69;100.00;100339.72;5623006;31;34087;-67
2023/03/22 04:53:29;;;;;;;;;;;;;;;5.66;100.00;100341.81;5623710;31;34701;-67
2023/03/22 04:56:35;;;;;;;;;;;;;;;5.63;100.00;100340.25;5623057;31;33108;-67
2023/03/22 04:59:43;;;;;;;;;;;;;;;5.59;100.00;100343.31;5622864;31;34136;-67
2023/03/22 05:02:50;;;;;;;;;;;;;;;5.54;100.00;100335.00;5623121;31;34504;-66
2023/03/22 05:05:59;;;;;;;;;;;;;;;5.58;100.00;100357.44;5623645;31;34789;-67
2023/03/22 05:09:10;;;;;;;;;;;;;;;5.60;100.00;100351.06;5623420;31;34554;-67
2023/03/22 05:12:20;;;;;;;;;;;;;;;5.61;100.00;100365.91;5622990;31;33912;-66
2023/03/22 05:15:27;;;;;;;;;;;;;;;5.71;100.00;100375.59;5623459;31;34102;-66
2023/03/22 05:18:36;;;;;;;;;;;;;;;5.87;100.00;100365.38;5619015;31;34853;-67
2023/03/22 05:21:44;;;;;;;;;;;;;;;6.02;100.00;100362.19;5610263;31;34683;-68
2023/03/22 05:24:51;;;;;;;;;;;;;;;6.15;100.00;100371.63;5610309;31;34108;-68
2023/03/22 05:28:01;;;;;;;;;;;;;;;6.12;100.00;100370.09;5610200;31;34822;-68
2023/03/22 05:31:09;;;;;;;;;;;;;;;6.27;100.00;100371.34;5610271;31;34492;-68
2023/03/22 05:34:21;;;;;;;;;;;;;;;6.33;100.00;100375.22;5610148;31;34146;-67
2023/03/22 05:37:28;;;;;;;;;;;;;;;6.47;100.00;100378.25;5609521;31;33898;-67
2023/03/22 05:40:35;;;;;;;;;;;;;;;6.66;100.00;100392.34;5609499;31;34644;-67
2023/03/22 05:43:44;;;;;;;;;;;;;;;6.95;100.00;100393.94;5610212;31;34789;-66
2023/03/22 05:46:56;;;;;;;;;;;;;;;7.05;100.00;100377.25;5610065;31;34034;-69
2023/03/22 05:50:04;;;;;;;;;;;;;;;7.24;100.00;100372.72;5610204;31;34437;-67
2023/03/22 05:53:12;;;;;;;;;;;;;;;7.42;100.00;100391.22;5610078;31;34591;-67
2023/03/22 05:56:23;;;;;;;;;;;;;;;7.56;100.00;100398.66;5610118;31;34076;-67
2023/03/22 05:59:30;;;;;;;;;;;;;;;7.58;100.00;100390.59;5609835;31;34596;-67
2023/03/22 06:02:36;;;;;;;;;;;;;;;7.60;100.00;100391.28;5609301;31;34827;-67
2023/03/22 06:05:45;;;;;;;;;;;;;;;7.68;100.00;100394.84;5609987;31;33656;-67
2023/03/22 06:08:52;;;;;;;;;;;;;;;7.80;100.00;100411.28;5609349;31;34807;-67
2023/03/22 06:12:23;;;;;;;;;;;;;;;7.86;100.00;100410.69;5609807;31;34055;-67
2023/03/22 06:15:30;;;;;;;;;;;;;;;7.92;100.00;100411.91;5609172;31;34317;-68
2023/03/22 06:18:39;;;;;;;;;;;;;;;7.99;100.00;100411.13;5609396;31;33784;-67
2023/03/22 06:21:44;;;;;;;;;;;;;;;8.18;100.00;100404.91;5609356;31;34806;-68
2023/03/22 06:24:52;;;;;;;;;;;;;;;8.76;100.00;100404.38;5609719;31;34255;-68
2023/03/22 06:27:59;;;;;;;;;;;;;;;9.70;100.00;100419.22;5609497;31;34541;-68
2023/03/22 06:31:07;;;;;;;;;;;;;;;10.26;100.00;100421.16;5608186;31;34678;-68
2023/03/22 06:34:13;;;;;;;;;;;;;;;10.49;100.00;100421.34;5609710;31;34193;-67
2023/03/22 06:37:23;;;;;;;;;;;;;;;10.23;100.00;100431.28;5609380;31;34805;-67
2023/03/22 06:40:29;;;;;;;;;;;;;;;11.11;100.00;100419.78;5609382;31;33762;-67
2023/03/22 06:43:35;;;;;;;;;;;;;;;11.64;96.23;100418.25;5608761;31;34052;-69
2023/03/22 06:46:42;;;;;;;;;;;;;;;12.85;87.97;100427.19;5609147;31;34487;-68
2023/03/22 06:49:50;;;;;;;;;;;;;;;12.88;85.29;100424.16;5608369;31;32668;-67
2023/03/22 06:52:57;;;;;;;;;;;;;;;13.97;76.94;100428.72;5608455;31;34464;-67
2023/03/22 06:56:05;;;;;;;;;;;;;;;13.66;77.47;100426.31;5608970;31;34023;-68
2023/03/22 06:59:17;;;;;;;;;;;;;;;13.69;75.36;100434.78;5596123;31;32849;-68
2023/03/22 07:02:27;;;;;;;;;;;;;;;13.68;74.32;100435.78;5608714;31;34233;-69
2023/03/22 07:05:34;;;;;;;;;;;;;;;12.86;80.56;100426.19;5608623;31;34335;-69
2023/03/22 07:08:44;;;;;;;;;;;;;;;13.58;77.59;100432.59;5609202;31;34792;-68
2023/03/22 07:11:55;;;;;;;;;;;;;;;13.53;73.70;100434.97;5609605;31;34146;-68
2023/03/22 07:15:04;;;;;;;;;;;;;;;13.75;73.43;100427.84;5609452;31;34505;-68
2023/03/22 07:18:13;;;;;;;;;;;;;;;13.77;73.28;100436.50;5609139;31;34252;-68
2023/03/22 07:21:20;;;;;;;;;;;;;;;13.56;75.08;100439.09;5608412;31;34661;-68
2023/03/22 07:24:25;;;;;;;;;;;;;;;13.60;72.46;100454.56;5608419;31;34134;-68
2023/03/22 07:27:30;;;;;;;;;;;;;;;13.41;73.37;100447.09;5608172;31;32878;-67
2023/03/22 07:30:36;;;;;;;;;;;;;;;13.84;70.71;100442.75;5608355;31;33697;-68
2023/03/22 07:33:51;;;;;;;;;;;;;;;13.67;71.03;100449.28;5609095;31;34097;-68
2023/03/22 07:36:58;;;;;;;;;;;;;;;13.67;70.61;100435.97;5595542;31;32605;-68
2023/03/22 07:40:05;;;;;;;;;;;;;;;14.19;68.44;100431.22;5608769;31;34213;-68
2023/03/22 07:43:12;;;;;;;;;;;;;;;14.12;69.41;100442.84;5607569;31;34230;-68
2023/03/22 07:46:20;;;;;;;;;;;;;;;14.33;67.94;100443.69;5609066;31;34408;-67
2023/03/22 07:49:26;;;;;;;;;;;;;;;14.28;67.32;100450.63;5607923;31;34232;-67
2023/03/22 07:52:31;;;;;;;;;;;;;;;14.72;65.33;100442.41;5607932;31;34796;-67
2023/03/22 07:55:37;;;;;;;;;;;;;;;13.86;67.57;100436.19;5608105;31;34664;-67
2023/03/22 07:58:44;;;;;;;;;;;;;;;14.38;65.16;100450.34;5608874;31;33684;-66
2023/03/22 08:01:49;;;;;;;;;;;;;;;15.13;63.04;100437.19;5608553;31;34169;-66
2023/03/22 08:04:55;;;;;;;;;;;;;;;13.94;66.33;100435.28;5608573;31;34706;-66
2023/03/22 08:07:59;;;;;;;;;;;;;;;14.59;64.40;100421.78;5608232;31;34028;-66
2023/03/22 08:11:05;;;;;;;;;;;;;;;14.28;65.00;100416.72;5608579;31;34161;-66
2023/03/22 08:14:11;;;;;;;;;;;;;;;14.76;62.79;100427.69;5608459;31;34192;-66
2023/03/22 08:17:17;;;;;;;;;;;;;;;15.18;62.15;100438.25;5608387;31;34696;-66
2023/03/22 08:20:21;;;;;;;;;;;;;;;15.56;60.43;100432.50;5594374;31;33052;-66
2023/03/22 08:23:27;;;;;;;;;;;;;;;14.25;63.83;100429.63;5608142;31;33920;-66
2023/03/22 08:26:48;;;;;;;;;;;;;;;13.99;65.87;100430.19;5608590;31;34753;-66
2023/03/22 08:29:57;;;;;;;;;;;;;;;14.71;63.30;100435.44;5606763;31;34961;-66
2023/03/22 08:33:02;;;;;;;;;;;;;;;14.66;64.35;100435.19;5607175;31;34167;-67
2023/03/22 08:36:11;;;;;;;;;;;;;;;15.44;60.15;100439.44;5608016;31;34270;-66
2023/03/22 08:39:16;;;;;;;;;;;;;;;15.95;58.20;100439.88;5607855;31;34478;-67
2023/03/22 08:42:21;;;;;;;;;;;;;;;15.97;56.84;100440.50;5607013;31;34780;-67
2023/03/22 08:45:27;;;;;;;;;;;;;;;15.43;58.52;100443.94;5607827;31;34008;-66
2023/03/22 08:48:34;;;;;;;;;;;;;;;15.39;58.13;100455.22;5607666;31;33939;-66
2023/03/22 08:51:40;;;;;;;;;;;;;;;14.88;59.71;100435.97;5606615;31;33549;-66
2023/03/22 08:54:46;;;;;;;;;;;;;;;14.78;60.84;100433.63;5609101;31;34687;-66
2023/03/22 08:57:57;;;;;;;;;;;;;;;14.93;61.06;100430.88;5609935;31;34028;-66
2023/03/22 09:01:04;;;;;;;;;;;;;;;14.35;63.27;100427.47;5609802;31;34691;-67
2023/03/22 09:04:11;;;;;;;;;;;;;;;14.55;63.95;100439.19;5610499;31;34647;-66
2023/03/22 09:07:17;;;;;;;;;;;;;;;15.27;60.72;100444.25;5609986;31;34376;-66
2023/03/22 09:10:23;;;;;;;;;;;;;;;15.63;58.79;100447.59;5610461;31;34726;-66
2023/03/22 09:13:32;;;;;;;;;;;;;;;15.76;58.43;100438.78;5610443;31;33051;-66
2023/03/22 09:16:39;;;;;;;;;;;;;;;16.38;56.73;100448.41;5610048;31;34659;-66
2023/03/22 09:19:48;;;;;;;;;;;;;;;16.44;55.58;100437.72;5609467;31;34538;-67
2023/03/22 09:23:06;;;;;;;;;;;;;;;16.22;56.78;100446.94;5610216;31;34288;-66
2023/03/22 09:26:11;;;;;;;;;;;;;;;15.93;57.52;100434.72;5609353;31;34811;-66
2023/03/22 09:29:18;;;;;;;;;;;;;;;16.00;57.52;100442.78;5609936;31;34713;-66
2023/03/22 09:32:24;;;;;;;;;;;;;;;16.24;56.46;100434.19;5609969;31;34176;-67
2023/03/22 09:35:32;;;;;;;;;;;;;;;16.19;56.37;100428.59;5596776;31;32491;-67
2023/03/22 09:38:40;;;;;;;;;;;;;;;16.34;56.98;100425.75;5609464;31;34174;-66
2023/03/22 09:42:16;;;;;;;;;;;;;;;16.05;56.56;100425.09;5609407;31;34276;-66
2023/03/22 09:45:33;;;;;;;;;;;;;;;16.00;57.15;100424.03;5568460;31;34075;-66
2023/03/22 09:48:42;;;;;;;;;;;;;;;15.91;57.12;100419.91;5609615;31;34624;-66
2023/03/22 09:51:48;;;;;;;;;;;;;;;16.21;56.86;100415.88;5609992;31;34176;-66
2023/03/22 09:54:54;;;;;;;;;;;;;;;16.25;57.24;100414.41;5596530;31;34052;-66
2023/03/22 09:58:15;;;;;;;;;;;;;;;15.21;59.70;100416.47;5609048;31;34744;-66
2023/03/22 10:01:28;;;;;;;;;;;;;;;15.52;59.81;100413.37;5609149;31;34749;-66
2023/03/22 10:04:40;;;;;;;;;;;;;;;16.11;58.28;100412.75;5609838;31;34772;-67
2023/03/22 10:08:03;;;;;;;;;;;;;;;16.05;56.91;100414.38;5609753;31;34834;-67
2023/03/22 10:11:13;;;;;;;;;;;;;;;15.64;59.35;100414.44;5610042;31;34184;-66
2023/03/22 10:14:17;;;;;;;;;;;;;;;15.97;58.63;100413.75;5609819;31;34140;-66
2023/03/22 10:17:24;;;;;;;;;;;;;;;16.13;57.10;100409.84;5609157;31;34648;-67
2023/03/22 10:20:36;;;;;;;;;;;;;;;16.07;57.10;100411.50;5609222;31;34642;-66
2023/03/22 10:23:53;;;;;;;;;;;;;;;15.82;56.83;100408.56;5609562;31;33771;-66
2023/03/22 10:26:58;;;;;;;;;;;;;;;15.57;57.76;100407.44;5595851;31;35750;-66
2023/03/22 10:30:08;;;;;;;;;;;;;;;15.42;58.60;100404.03;5595995;31;34511;-65
2023/03/22 10:33:15;;;;;;;;;;;;;;;15.37;59.52;100407.31;5608903;31;32792;-67
2023/03/22 10:36:29;;;;;;;;;;;;;;;15.37;59.19;100409.16;5608684;31;33734;-66
2023/03/22 10:39:36;;;;;;;;;;;;;;;15.44;58.87;100412.69;5609230;31;34790;-66
2023/03/22 10:42:49;;;;;;;;;;;;;;;15.37;58.86;100412.66;5608771;31;33745;-67
2023/03/22 10:46:01;;;;;;;;;;;;;;;15.17;59.87;100411.72;5609478;31;33696;-67
2023/03/22 10:49:09;;;;;;;;;;;;;;;14.96;60.29;100403.78;5595686;31;35099;-66
2023/03/22 10:52:28;;;;;;;;;;;;;;;14.72;61.33;100405.03;5609311;31;34252;-66
2023/03/22 10:55:40;;;;;;;;;;;;;;;14.65;62.01;100404.16;5609406;31;34248;-67
2023/03/22 10:58:50;;;;;;;;;;;;;;;14.66;62.52;100406.66;5609552;31;34182;-67
2023/03/22 11:01:56;;;;;;;;;;;;;;;14.51;63.67;100405.06;5609247;31;34785;-66
2023/03/22 11:05:02;;;;;;;;;;;;;;;14.54;63.34;100397.50;5595550;31;32654;-66
2023/03/22 11:08:13;;;;;;;;;;;;;;;14.52;62.66;100402.22;5609037;31;34181;-66
2023/03/22 11:11:29;;;;;;;;;;;;;;;14.41;63.39;100389.37;5595414;31;33176;-67
2023/03/22 11:14:36;;;;;;;;;;;;;;;14.29;63.96;100391.69;5608245;31;34236;-66
2023/03/22 11:17:42;;;;;;;;;;;;;;;14.31;63.79;100373.66;5607820;31;35067;-66
2023/03/22 11:20:54;;;;;;;;;;;;;;;14.38;64.29;100372.94;5608900;31;34877;-67
2023/03/22 11:24:02;;;;;;;;;;;;;;;14.30;64.43;100379.19;5582837;31;34915;-67
2023/03/22 11:27:17;;;;;;;;;;;;;;;14.04;66.18;100370.97;5608103;31;32687;-67
2023/03/22 11:30:24;;;;;;;;;;;;;;;14.05;66.67;100361.91;5608927;31;34828;-67
2023/03/22 11:33:32;;;;;;;;;;;;;;;14.29;66.28;100361.53;5609130;31;34068;-67
2023/03/22 11:36:42;;;;;;;;;;;;;;;14.37;66.55;100364.09;5608379;31;34345;-67
2023/03/22 11:39:48;;;;;;;;;;;;;;;14.53;66.75;100365.66;5594912;31;34568;-67
2023/03/22 11:42:54;;;;;;;;;;;;;;;14.48;65.40;100360.06;5607925;31;34083;-66
2023/03/22 11:45:59;;;;;;;;;;;;;;;14.47;65.74;100355.75;5608994;31;34211;-67
2023/03/22 11:49:06;;;;;;;;;;;;;;;14.68;64.75;100353.84;5608413;31;34824;-66
2023/03/22 11:52:17;;;;;;;;;;;;;;;14.88;64.08;100343.31;5608002;31;32502;-66
2023/03/22 11:55:22;;;;;;;;;;;;;;;15.01;63.39;100345.22;5608021;31;34316;-67
2023/03/22 11:58:58;;;;;;;;;;;;;;;15.83;60.32;100335.28;5608012;31;34150;-67
2023/03/22 12:02:12;;;;;;;;;;;;;;;16.13;58.59;100343.75;5593854;31;34536;-67
2023/03/22 12:05:22;;;;;;;;;;;;;;;16.23;58.56;100340.69;5607946;31;34145;-67
2023/03/22 12:08:30;;;;;;;;;;;;;;;16.47;56.64;100346.25;5608359;31;34211;-67
2023/03/22 12:11:38;;;;;;;;;;;;;;;16.75;56.27;100347.91;5607489;31;34290;-67
2023/03/22 12:14:47;;;;;;;;;;;;;;;17.12;54.49;100354.44;5607799;31;34961;-67
2023/03/22 12:17:59;;;;;;;;;;;;;;;17.07;53.46;100351.56;5608531;31;34836;-67
2023/03/22 12:21:07;;;;;;;;;;;;;;;17.70;51.13;100345.34;5607717;31;34190;-67
2023/03/22 12:24:21;;;;;;;;;;;;;;;18.64;49.12;100350.66;5607703;31;33775;-67
2023/03/22 12:27:31;;;;;;;;;;;;;;;18.82;47.80;100343.66;5608208;31;34821;-66
2023/03/22 12:30:42;;;;;;;;;;;;;;;18.29;48.27;100341.44;5610308;31;34740;-67
2023/03/22 12:33:56;;;;;;;;;;;;;;;18.23;49.33;100331.56;5609861;31;33160;-67
2023/03/22 12:37:04;;;;;;;;;;;;;;;17.99;49.60;100332.34;5610643;31;34218;-68
2023/03/22 12:40:31;;;;;;;;;;;;;;;17.69;49.86;100340.19;5610290;31;34566;-67
2023/03/22 12:43:51;;;;;;;;;;;;;;;18.10;49.37;100337.88;5610832;31;34790;-67
2023/03/22 12:46:57;;;;;;;;;;;;;;;18.29;47.38;100333.38;5610003;31;34119;-67
2023/03/22 12:50:04;;;;;;;;;;;;;;;17.58;49.06;100332.75;5610688;31;34511;-66
2023/03/22 12:53:14;;;;;;;;;;;;;;;17.92;49.45;100331.56;5610797;31;34569;-68
2023/03/22 12:56:32;;;;;;;;;;;;;;;17.66;48.55;100329.88;5610089;31;32500;-66
2023/03/22 12:59:41;;;;;;;;;;;;;;;17.64;48.88;100324.72;5610382;31;34297;-67
2023/03/22 13:02:48;;;;;;;;;;;;;;;18.47;46.86;100325.37;5610386;31;34584;-67
2023/03/22 13:06:04;;;;;;;;;;;;;;;18.72;46.23;100316.47;5609676;31;34693;-67
2023/03/22 13:09:19;;;;;;;;;;;;;;;18.65;45.75;100309.31;5609549;31;34175;-66
2023/03/22 13:12:28;;;;;;;;;;;;;;;19.03;43.93;100303.72;5609558;31;33709;-67
2023/03/22 13:15:37;;;;;;;;;;;;;;;19.56;42.98;100296.91;5609753;31;32772;-67
2023/03/22 13:18:49;;;;;;;;;;;;;;;19.26;42.52;100296.84;5610535;31;34847;-67
2023/03/22 13:22:20;;;;;;;;;;;;;;;20.00;38.81;100296.41;5610461;31;34101;-67
2023/03/22 13:25:30;;;;;;;;;;;;;;;20.54;36.43;100289.94;5610380;31;34252;-67
2023/03/22 13:28:38;;;;;;;;;;;;;;;20.53;37.02;100282.09;5610490;31;34491;-68
2023/03/22 13:31:53;;;;;;;;;;;;;;;20.72;37.28;100287.09;5609393;31;34225;-68
2023/03/22 13:35:02;;;;;;;;;;;;;;;20.61;38.20;100282.56;5610111;31;34748;-67
2023/03/22 13:38:09;;;;;;;;;;;;;;;20.87;37.38;100283.09;5610586;31;34223;-68
2023/03/22 13:41:21;;;;;;;;;;;;;;;20.29;38.76;100275.84;5609771;31;34788;-68
2023/03/22 13:44:40;;;;;;;;;;;;;;;20.61;37.72;100276.34;5610218;31;34807;-67
2023/03/22 13:48:01;;;;;;;;;;;;;;;19.49;39.18;100281.66;5610265;31;34072;-68
2023/03/22 13:51:16;;;;;;;;;;;;;;;20.05;38.72;100268.78;5609311;31;34181;-67
2023/03/22 13:54:27;;;;;;;;;;;;;;;19.93;39.17;100274.19;5609936;31;34115;-67
2023/03/22 13:57:38;;;;;;;;;;;;;;;20.19;37.73;100268.34;5610041;31;34539;-67
2023/03/22 14:00:50;;;;;;;;;;;;;;;19.69;39.46;100265.22;5609397;31;34065;-67
2023/03/22 14:04:00;;;;;;;;;;;;;;;19.57;39.25;100269.75;5609949;31;34824;-67
2023/03/22 14:07:09;;;;;;;;;;;;;;;19.38;39.49;100263.56;5609985;31;34851;-67
2023/03/22 14:10:22;;;;;;;;;;;;;;;18.98;40.92;100259.72;5583809;31;34783;-66
2023/03/22 14:13:32;;;;;;;;;;;;;;;19.05;40.16;100258.63;5589903;31;34881;-67
2023/03/22 14:16:50;;;;;;;;;;;;;;;19.18;39.82;100259.47;5576121;31;32704;-68
2023/03/22 14:19:57;;;;;;;;;;;;;;;18.46;40.21;100250.34;5576053;31;35292;-68
2023/03/22 14:23:11;;;;;;;;;;;;;;;18.37;40.42;100249.84;5589630;31;34113;-67
2023/03/22 14:26:18;;;;;;;;;;;;;;;18.18;41.13;100245.47;5589902;31;34321;-66
2023/03/22 14:29:26;;;;;;;;;;;;;;;18.43;40.66;100238.22;5589881;31;34872;-66
2023/03/22 14:32:32;;;;;;;;;;;;;;;18.44;40.97;100237.16;5589761;31;34654;-66
2023/03/22 14:35:39;;;;;;;;;;;;;;;18.52;40.16;100239.56;5576155;31;34416;-66
2023/03/22 14:38:47;;;;;;;;;;;;;;;18.28;40.82;100248.47;5589687;31;34904;-66
2023/03/22 14:42:00;;;;;;;;;;;;;;;17.56;42.37;100240.97;5590129;31;34606;-65
2023/03/22 14:45:06;;;;;;;;;;;;;;;17.75;42.41;100243.56;5589479;31;34328;-67
2023/03/22 14:48:14;;;;;;;;;;;;;;;17.83;43.39;100242.44;5575491;31;33177;-66
2023/03/22 14:51:24;;;;;;;;;;;;;;;17.85;42.97;100234.19;5588231;31;34834;-66
2023/03/22 14:54:29;;;;;;;;;;;;;;;17.45;44.62;100229.06;5575970;31;34818;-67
2023/03/22 14:57:36;;;;;;;;;;;;;;;17.60;44.08;100229.63;5576049;31;34261;-67
2023/03/22 15:00:43;;;;;;;;;;;;;;;17.29;44.83;100233.06;5576137;31;34793;-67
2023/03/22 15:03:49;;;;;;;;;;;;;;;17.32;44.38;100221.94;5576550;31;34338;-66
2023/03/22 15:06:57;;;;;;;;;;;;;;;17.56;43.90;100224.88;5575805;31;34715;-67
2023/03/22 15:10:11;;;;;;;;;;;;;;;17.49;43.99;100219.56;5608391;31;34703;-66
2023/03/22 15:13:15;;;;;;;;;;;;;;;17.41;44.42;100214.44;5608455;31;34236;-67
2023/03/22 15:16:21;;;;;;;;;;;;;;;17.30;45.05;100220.50;5608440;31;35015;-66
2023/03/22 15:19:32;;;;;;;;;;;;;;;17.13;46.06;100217.50;5608376;31;33724;-66
2023/03/22 15:22:36;;;;;;;;;;;;;;;17.00;47.26;100204.16;5609096;31;33095;-66
2023/03/22 15:25:44;;;;;;;;;;;;;;;16.98;47.63;100210.78;5594755;31;34751;-66
2023/03/22 15:28:52;;;;;;;;;;;;;;;17.01;47.27;100210.34;5608109;31;34131;-67
2023/03/22 15:31:58;;;;;;;;;;;;;;;16.94;47.60;100211.19;5582074;31;34833;-67
2023/03/22 15:35:04;;;;;;;;;;;;;;;16.80;47.60;100200.72;5608296;31;34597;-67
2023/03/22 15:38:13;;;;;;;;;;;;;;;16.88;47.71;100205.88;5608900;31;34726;-66
2023/03/22 15:41:24;;;;;;;;;;;;;;;17.09;47.53;100207.44;5608854;31;34235;-66
2023/03/22 15:44:35;;;;;;;;;;;;;;;16.93;47.67;100203.37;5608217;31;34704;-66
2023/03/22 15:47:42;;;;;;;;;;;;;;;16.78;48.61;100198.28;5608943;31;34668;-66
2023/03/22 15:50:51;;;;;;;;;;;;;;;16.77;48.28;100196.63;5608304;31;34207;-66
2023/03/22 15:54:01;;;;;;;;;;;;;;;16.77;48.72;100201.16;5608797;31;34780;-65
2023/03/22 15:57:16;;;;;;;;;;;;;;;16.66;49.17;100197.28;5595201;31;34726;-66
2023/03/22 16:00:21;;;;;;;;;;;;;;;16.46;49.68;100186.59;5607812;31;34800;-66
2023/03/22 16:03:37;;;;;;;;;;;;;;;16.57;49.63;100187.81;5608405;31;33922;-66
2023/03/22 16:06:42;;;;;;;;;;;;;;;16.47;50.05;100193.63;5608212;31;34174;-67
2023/03/22 16:09:46;;;;;;;;;;;;;;;16.24;51.12;100190.59;5607764;31;34780;-67
2023/03/22 16:12:51;;;;;;;;;;;;;;;16.01;51.89;100192.91;5608347;31;34843;-67
2023/03/22 16:15:59;;;;;;;;;;;;;;;15.76;52.73;100198.03;5607530;31;34414;-67